RQO weather

El Reno Regional Airport
El Reno, Oklahoma, United States

Public forecast

Using degrees Fahrenheit for public forecast. Weather courtesy of forecast.io.

METAR (pilot weather report)

Retrieved 2019/08/19 13:30 UTC (25 minutes ago):

KRQO 191330Z AUTO 17012KT 5SM HZ SCT005 27/21 A2999 RMK AO2 T02750211

TAF (pilot weather forecast)

Closest forecast is Will Rogers World Airport, 20.4 nm (37.8 km) ESE. Retrieved 2019/08/19 12:34 UTC (1 hour ago):

TAF KOKC 191132Z 1912/2012 17010KT P6SM FEW060 SCT250